sensor_id;sensor_type;location;lat;lon;timestamp;P1;durP1;ratioP1;P2;durP2;ratioP2
19257;SDS011;9763;48.780;9.212;2023-06-10T00:02:51;2.53;;;2.33;;
19257;SDS011;9763;48.780;9.212;2023-06-10T00:06:15;2.63;;;2.43;;
19257;SDS011;9763;48.780;9.212;2023-06-10T00:09:40;2.80;;;2.57;;
19257;SDS011;9763;48.780;9.212;2023-06-10T00:13:05;2.40;;;2.20;;
19257;SDS011;9763;48.780;9.212;2023-06-10T00:16:32;2.33;;;2.13;;
19257;SDS011;9763;48.780;9.212;2023-06-10T00:19:55;2.13;;;2.00;;
19257;SDS011;9763;48.780;9.212;2023-06-10T00:23:19;2.93;;;2.43;;
19257;SDS011;9763;48.780;9.212;2023-06-10T00:26:44;3.13;;;2.67;;
19257;SDS011;9763;48.780;9.212;2023-06-10T00:30:08;2.57;;;2.37;;
19257;SDS011;9763;48.780;9.212;2023-06-10T00:33:34;2.70;;;2.50;;
19257;SDS011;9763;48.780;9.212;2023-06-10T00:36:58;3.50;;;2.33;;
19257;SDS011;9763;48.780;9.212;2023-06-10T00:40:22;2.40;;;2.20;;
19257;SDS011;9763;48.780;9.212;2023-06-10T00:43:46;2.33;;;2.13;;
19257;SDS011;9763;48.780;9.212;2023-06-10T00:47:09;2.80;;;2.50;;
19257;SDS011;9763;48.780;9.212;2023-06-10T00:50:35;2.60;;;2.40;;
19257;SDS011;9763;48.780;9.212;2023-06-10T00:54:01;2.23;;;2.03;;
19257;SDS011;9763;48.780;9.212;2023-06-10T00:57:26;2.53;;;2.33;;
19257;SDS011;9763;48.780;9.212;2023-06-10T01:00:51;2.80;;;2.50;;
19257;SDS011;9763;48.780;9.212;2023-06-10T01:04:15;2.40;;;2.20;;
19257;SDS011;9763;48.780;9.212;2023-06-10T01:07:46;2.73;;;2.40;;
19257;SDS011;9763;48.780;9.212;2023-06-10T01:11:25;2.30;;;2.10;;
19257;SDS011;9763;48.780;9.212;2023-06-10T01:14:57;6.10;;;2.60;;
19257;SDS011;9763;48.780;9.212;2023-06-10T01:18:23;2.43;;;2.23;;
19257;SDS011;9763;48.780;9.212;2023-06-10T01:21:54;2.90;;;2.20;;
19257;SDS011;9763;48.780;9.212;2023-06-10T01:25:20;2.40;;;2.20;;
19257;SDS011;9763;48.780;9.212;2023-06-10T01:28:51;2.40;;;2.20;;
19257;SDS011;9763;48.780;9.212;2023-06-10T01:32:22;3.10;;;2.60;;
19257;SDS011;9763;48.780;9.212;2023-06-10T01:35:56;2.47;;;2.27;;
19257;SDS011;9763;48.780;9.212;2023-06-10T01:39:24;2.40;;;2.20;;
19257;SDS011;9763;48.780;9.212;2023-06-10T01:42:49;2.47;;;2.27;;
19257;SDS011;9763;48.780;9.212;2023-06-10T01:46:14;2.57;;;2.23;;
19257;SDS011;9763;48.780;9.212;2023-06-10T01:49:41;2.43;;;2.23;;
19257;SDS011;9763;48.780;9.212;2023-06-10T01:53:05;2.60;;;2.00;;
19257;SDS011;9763;48.780;9.212;2023-06-10T01:56:30;2.20;;;2.00;;
19257;SDS011;9763;48.780;9.212;2023-06-10T01:59:53;2.40;;;2.20;;
19257;SDS011;9763;48.780;9.212;2023-06-10T02:03:17;2.77;;;2.57;;
19257;SDS011;9763;48.780;9.212;2023-06-10T02:06:41;2.37;;;2.17;;
19257;SDS011;9763;48.780;9.212;2023-06-10T02:10:06;2.40;;;2.20;;
19257;SDS011;9763;48.780;9.212;2023-06-10T02:13:32;2.67;;;2.47;;
19257;SDS011;9763;48.780;9.212;2023-06-10T02:16:56;2.83;;;2.63;;
19257;SDS011;9763;48.780;9.212;2023-06-10T02:20:19;2.30;;;2.10;;
19257;SDS011;9763;48.780;9.212;2023-06-10T02:23:43;2.40;;;2.20;;
19257;SDS011;9763;48.780;9.212;2023-06-10T02:27:07;2.20;;;2.00;;
19257;SDS011;9763;48.780;9.212;2023-06-10T02:30:32;2.43;;;2.23;;
19257;SDS011;9763;48.780;9.212;2023-06-10T02:33:56;3.33;;;2.30;;
19257;SDS011;9763;48.780;9.212;2023-06-10T02:37:20;2.50;;;2.30;;
19257;SDS011;9763;48.780;9.212;2023-06-10T02:40:44;3.00;;;2.70;;
19257;SDS011;9763;48.780;9.212;2023-06-10T02:44:08;2.60;;;2.40;;
19257;SDS011;9763;48.780;9.212;2023-06-10T02:47:34;2.40;;;2.20;;
19257;SDS011;9763;48.780;9.212;2023-06-10T02:50:57;2.07;;;1.97;;
19257;SDS011;9763;48.780;9.212;2023-06-10T02:54:30;2.77;;;2.57;;
19257;SDS011;9763;48.780;9.212;2023-06-10T02:57:54;2.43;;;2.23;;
19257;SDS011;9763;48.780;9.212;2023-06-10T03:01:19;2.33;;;2.13;;
19257;SDS011;9763;48.780;9.212;2023-06-10T03:04:53;2.70;;;2.50;;
19257;SDS011;9763;48.780;9.212;2023-06-10T03:08:17;2.30;;;2.10;;
19257;SDS011;9763;48.780;9.212;2023-06-10T03:11:41;2.80;;;2.60;;
19257;SDS011;9763;48.780;9.212;2023-06-10T03:15:05;2.40;;;2.20;;
19257;SDS011;9763;48.780;9.212;2023-06-10T03:18:30;2.10;;;1.93;;
19257;SDS011;9763;48.780;9.212;2023-06-10T03:21:57;2.20;;;2.00;;
19257;SDS011;9763;48.780;9.212;2023-06-10T03:25:33;2.73;;;2.53;;
19257;SDS011;9763;48.780;9.212;2023-06-10T03:28:58;2.10;;;1.90;;
19257;SDS011;9763;48.780;9.212;2023-06-10T03:32:22;2.83;;;2.63;;
19257;SDS011;9763;48.780;9.212;2023-06-10T03:35:46;2.50;;;2.30;;
19257;SDS011;9763;48.780;9.212;2023-06-10T03:39:13;2.40;;;2.20;;
19257;SDS011;9763;48.780;9.212;2023-06-10T03:42:37;2.30;;;2.10;;
19257;SDS011;9763;48.780;9.212;2023-06-10T03:46:02;2.43;;;2.23;;
19257;SDS011;9763;48.780;9.212;2023-06-10T03:49:27;2.50;;;2.30;;
19257;SDS011;9763;48.780;9.212;2023-06-10T03:52:55;2.37;;;2.17;;
19257;SDS011;9763;48.780;9.212;2023-06-10T03:56:21;2.87;;;2.30;;
19257;SDS011;9763;48.780;9.212;2023-06-10T03:59:45;2.70;;;2.50;;
19257;SDS011;9763;48.780;9.212;2023-06-10T04:03:09;2.20;;;2.00;;
19257;SDS011;9763;48.780;9.212;2023-06-10T04:06:43;2.50;;;2.30;;
19257;SDS011;9763;48.780;9.212;2023-06-10T04:10:07;2.60;;;2.40;;
19257;SDS011;9763;48.780;9.212;2023-06-10T04:13:33;2.70;;;2.50;;
19257;SDS011;9763;48.780;9.212;2023-06-10T04:16:58;2.63;;;2.43;;
19257;SDS011;9763;48.780;9.212;2023-06-10T04:20:24;3.03;;;2.73;;
19257;SDS011;9763;48.780;9.212;2023-06-10T04:23:48;2.60;;;2.40;;
19257;SDS011;9763;48.780;9.212;2023-06-10T04:27:12;2.60;;;2.40;;
19257;SDS011;9763;48.780;9.212;2023-06-10T04:30:37;2.20;;;2.00;;
19257;SDS011;9763;48.780;9.212;2023-06-10T04:34:01;2.40;;;1.97;;
19257;SDS011;9763;48.780;9.212;2023-06-10T04:37:25;2.83;;;2.63;;
19257;SDS011;9763;48.780;9.212;2023-06-10T04:40:51;2.93;;;2.40;;
19257;SDS011;9763;48.780;9.212;2023-06-10T04:44:16;2.63;;;2.43;;
19257;SDS011;9763;48.780;9.212;2023-06-10T04:47:42;2.80;;;2.50;;
19257;SDS011;9763;48.780;9.212;2023-06-10T04:51:06;2.87;;;2.67;;
19257;SDS011;9763;48.780;9.212;2023-06-10T04:54:30;2.60;;;2.40;;
19257;SDS011;9763;48.780;9.212;2023-06-10T04:57:54;2.77;;;2.57;;
19257;SDS011;9763;48.780;9.212;2023-06-10T05:01:19;2.67;;;2.47;;
19257;SDS011;9763;48.780;9.212;2023-06-10T05:04:44;2.50;;;2.30;;
19257;SDS011;9763;48.780;9.212;2023-06-10T05:08:07;2.63;;;2.43;;
19257;SDS011;9763;48.780;9.212;2023-06-10T05:11:31;3.10;;;2.80;;
19257;SDS011;9763;48.780;9.212;2023-06-10T05:14:55;2.77;;;2.57;;
19257;SDS011;9763;48.780;9.212;2023-06-10T05:18:19;2.67;;;2.47;;
19257;SDS011;9763;48.780;9.212;2023-06-10T05:21:44;5.30;;;2.60;;
19257;SDS011;9763;48.780;9.212;2023-06-10T05:25:08;2.60;;;2.40;;
19257;SDS011;9763;48.780;9.212;2023-06-10T05:28:33;2.20;;;2.00;;
19257;SDS011;9763;48.780;9.212;2023-06-10T05:31:57;3.70;;;2.20;;
19257;SDS011;9763;48.780;9.212;2023-06-10T05:35:24;2.20;;;2.00;;
19257;SDS011;9763;48.780;9.212;2023-06-10T05:38:49;2.60;;;2.40;;
19257;SDS011;9763;48.780;9.212;2023-06-10T05:42:13;2.53;;;2.33;;
19257;SDS011;9763;48.780;9.212;2023-06-10T05:45:37;2.23;;;2.03;;
19257;SDS011;9763;48.780;9.212;2023-06-10T05:49:02;3.23;;;2.13;;
19257;SDS011;9763;48.780;9.212;2023-06-10T05:52:26;2.23;;;2.03;;
19257;SDS011;9763;48.780;9.212;2023-06-10T05:55:51;2.40;;;2.20;;
19257;SDS011;9763;48.780;9.212;2023-06-10T05:59:19;4.50;;;2.00;;
19257;SDS011;9763;48.780;9.212;2023-06-10T06:02:44;2.13;;;1.73;;
19257;SDS011;9763;48.780;9.212;2023-06-10T06:06:08;2.10;;;1.90;;
19257;SDS011;9763;48.780;9.212;2023-06-10T06:09:32;2.23;;;2.03;;
19257;SDS011;9763;48.780;9.212;2023-06-10T06:12:57;2.27;;;2.07;;
19257;SDS011;9763;48.780;9.212;2023-06-10T06:16:21;2.13;;;1.93;;
19257;SDS011;9763;48.780;9.212;2023-06-10T06:19:44;1.83;;;1.67;;
19257;SDS011;9763;48.780;9.212;2023-06-10T06:23:09;2.20;;;2.00;;
19257;SDS011;9763;48.780;9.212;2023-06-10T06:26:33;2.17;;;1.70;;
19257;SDS011;9763;48.780;9.212;2023-06-10T06:29:58;2.00;;;1.80;;
19257;SDS011;9763;48.780;9.212;2023-06-10T06:33:22;2.23;;;1.93;;
19257;SDS011;9763;48.780;9.212;2023-06-10T06:36:48;2.10;;;1.90;;
19257;SDS011;9763;48.780;9.212;2023-06-10T06:40:12;1.80;;;1.70;;
19257;SDS011;9763;48.780;9.212;2023-06-10T06:43:36;1.63;;;1.53;;
19257;SDS011;9763;48.780;9.212;2023-06-10T06:47:19;1.87;;;1.70;;
19257;SDS011;9763;48.780;9.212;2023-06-10T06:50:43;2.10;;;1.90;;
19257;SDS011;9763;48.780;9.212;2023-06-10T06:54:08;2.17;;;1.97;;
19257;SDS011;9763;48.780;9.212;2023-06-10T06:57:33;2.53;;;1.67;;
19257;SDS011;9763;48.780;9.212;2023-06-10T07:00:56;2.50;;;2.30;;
19257;SDS011;9763;48.780;9.212;2023-06-10T07:04:21;3.30;;;2.00;;
19257;SDS011;9763;48.780;9.212;2023-06-10T07:07:45;2.33;;;2.13;;
19257;SDS011;9763;48.780;9.212;2023-06-10T07:11:09;2.40;;;2.00;;
19257;SDS011;9763;48.780;9.212;2023-06-10T07:14:32;2.80;;;2.07;;
19257;SDS011;9763;48.780;9.212;2023-06-10T07:17:57;5.30;;;1.80;;
19257;SDS011;9763;48.780;9.212;2023-06-10T07:21:22;2.07;;;1.87;;
19257;SDS011;9763;48.780;9.212;2023-06-10T07:24:46;2.40;;;2.20;;
19257;SDS011;9763;48.780;9.212;2023-06-10T07:28:10;2.10;;;1.90;;
19257;SDS011;9763;48.780;9.212;2023-06-10T07:31:33;2.20;;;2.00;;
19257;SDS011;9763;48.780;9.212;2023-06-10T07:34:57;1.60;;;1.50;;
19257;SDS011;9763;48.780;9.212;2023-06-10T07:38:22;1.80;;;1.70;;
19257;SDS011;9763;48.780;9.212;2023-06-10T07:41:46;1.70;;;1.60;;
19257;SDS011;9763;48.780;9.212;2023-06-10T07:45:10;2.00;;;1.90;;
19257;SDS011;9763;48.780;9.212;2023-06-10T07:48:34;2.03;;;1.83;;
19257;SDS011;9763;48.780;9.212;2023-06-10T07:51:58;2.43;;;1.80;;
19257;SDS011;9763;48.780;9.212;2023-06-10T07:55:23;1.97;;;1.77;;
19257;SDS011;9763;48.780;9.212;2023-06-10T07:58:47;1.70;;;1.60;;
19257;SDS011;9763;48.780;9.212;2023-06-10T08:02:11;2.10;;;1.90;;
19257;SDS011;9763;48.780;9.212;2023-06-10T08:05:35;2.00;;;1.80;;
19257;SDS011;9763;48.780;9.212;2023-06-10T08:08:59;2.00;;;1.60;;
19257;SDS011;9763;48.780;9.212;2023-06-10T08:12:24;3.33;;;1.73;;
19257;SDS011;9763;48.780;9.212;2023-06-10T08:15:48;1.87;;;1.77;;
19257;SDS011;9763;48.780;9.212;2023-06-10T08:19:12;1.93;;;1.53;;
19257;SDS011;9763;48.780;9.212;2023-06-10T08:22:36;5.00;;;1.97;;
19257;SDS011;9763;48.780;9.212;2023-06-10T08:26:00;1.93;;;1.73;;
19257;SDS011;9763;48.780;9.212;2023-06-10T08:29:26;1.50;;;1.40;;
19257;SDS011;9763;48.780;9.212;2023-06-10T08:32:50;2.30;;;2.10;;
19257;SDS011;9763;48.780;9.212;2023-06-10T08:36:14;1.97;;;1.87;;
19257;SDS011;9763;48.780;9.212;2023-06-10T08:39:38;1.90;;;1.80;;
19257;SDS011;9763;48.780;9.212;2023-06-10T08:43:04;1.40;;;1.27;;
19257;SDS011;9763;48.780;9.212;2023-06-10T08:46:31;1.93;;;1.73;;
19257;SDS011;9763;48.780;9.212;2023-06-10T08:49:56;1.60;;;1.50;;
19257;SDS011;9763;48.780;9.212;2023-06-10T08:53:26;1.70;;;1.60;;
19257;SDS011;9763;48.780;9.212;2023-06-10T08:56:55;1.73;;;1.63;;
19257;SDS011;9763;48.780;9.212;2023-06-10T09:00:22;1.60;;;1.50;;
19257;SDS011;9763;48.780;9.212;2023-06-10T09:03:50;1.93;;;1.73;;
19257;SDS011;9763;48.780;9.212;2023-06-10T09:07:15;1.60;;;1.50;;
19257;SDS011;9763;48.780;9.212;2023-06-10T09:10:39;1.60;;;1.50;;
19257;SDS011;9763;48.780;9.212;2023-06-10T09:14:03;1.50;;;1.40;;
19257;SDS011;9763;48.780;9.212;2023-06-10T09:17:27;1.80;;;1.70;;
19257;SDS011;9763;48.780;9.212;2023-06-10T09:20:52;1.73;;;1.63;;
19257;SDS011;9763;48.780;9.212;2023-06-10T09:24:16;2.03;;;1.77;;
19257;SDS011;9763;48.780;9.212;2023-06-10T09:27:44;2.20;;;2.00;;
19257;SDS011;9763;48.780;9.212;2023-06-10T09:31:11;1.60;;;1.50;;
19257;SDS011;9763;48.780;9.212;2023-06-10T09:34:35;4.07;;;1.67;;
19257;SDS011;9763;48.780;9.212;2023-06-10T09:38:00;2.07;;;1.50;;
19257;SDS011;9763;48.780;9.212;2023-06-10T09:41:31;2.10;;;1.90;;
19257;SDS011;9763;48.780;9.212;2023-06-10T09:44:56;1.70;;;1.60;;
19257;SDS011;9763;48.780;9.212;2023-06-10T09:48:19;1.97;;;1.77;;
19257;SDS011;9763;48.780;9.212;2023-06-10T09:51:50;1.90;;;1.80;;
19257;SDS011;9763;48.780;9.212;2023-06-10T09:55:16;1.90;;;1.70;;
19257;SDS011;9763;48.780;9.212;2023-06-10T09:58:40;1.70;;;1.60;;
19257;SDS011;9763;48.780;9.212;2023-06-10T10:02:05;1.83;;;1.73;;
19257;SDS011;9763;48.780;9.212;2023-06-10T10:05:31;2.30;;;1.97;;
19257;SDS011;9763;48.780;9.212;2023-06-10T10:08:55;2.97;;;1.70;;
19257;SDS011;9763;48.780;9.212;2023-06-10T10:12:20;3.40;;;1.80;;
19257;SDS011;9763;48.780;9.212;2023-06-10T10:15:47;1.87;;;1.63;;
19257;SDS011;9763;48.780;9.212;2023-06-10T10:19:11;1.83;;;1.73;;
19257;SDS011;9763;48.780;9.212;2023-06-10T10:22:43;2.03;;;1.83;;
19257;SDS011;9763;48.780;9.212;2023-06-10T10:26:09;1.70;;;1.60;;
19257;SDS011;9763;48.780;9.212;2023-06-10T10:29:37;2.00;;;1.80;;
19257;SDS011;9763;48.780;9.212;2023-06-10T10:33:04;2.30;;;2.07;;
19257;SDS011;9763;48.780;9.212;2023-06-10T10:36:32;2.30;;;2.10;;
19257;SDS011;9763;48.780;9.212;2023-06-10T10:39:56;1.80;;;1.70;;
19257;SDS011;9763;48.780;9.212;2023-06-10T10:43:23;1.60;;;1.50;;
19257;SDS011;9763;48.780;9.212;2023-06-10T10:46:49;1.67;;;1.57;;
19257;SDS011;9763;48.780;9.212;2023-06-10T10:50:16;1.77;;;1.67;;
19257;SDS011;9763;48.780;9.212;2023-06-10T10:53:41;2.00;;;1.80;;
19257;SDS011;9763;48.780;9.212;2023-06-10T10:57:09;2.40;;;1.57;;
19257;SDS011;9763;48.780;9.212;2023-06-10T11:00:35;1.60;;;1.50;;
19257;SDS011;9763;48.780;9.212;2023-06-10T11:04:02;2.20;;;1.70;;
19257;SDS011;9763;48.780;9.212;2023-06-10T11:07:31;1.90;;;1.70;;
19257;SDS011;9763;48.780;9.212;2023-06-10T11:10:56;17.07;;;2.17;;
19257;SDS011;9763;48.780;9.212;2023-06-10T11:14:26;8.43;;;1.90;;
19257;SDS011;9763;48.780;9.212;2023-06-10T11:18:06;8.80;;;2.00;;
19257;SDS011;9763;48.780;9.212;2023-06-10T11:21:59;2.37;;;1.77;;
19257;SDS011;9763;48.780;9.212;2023-06-10T11:25:31;2.00;;;1.83;;
19257;SDS011;9763;48.780;9.212;2023-06-10T11:29:03;2.50;;;2.03;;
19257;SDS011;9763;48.780;9.212;2023-06-10T11:32:33;2.13;;;1.90;;
19257;SDS011;9763;48.780;9.212;2023-06-10T11:35:57;2.77;;;2.00;;
19257;SDS011;9763;48.780;9.212;2023-06-10T11:39:23;2.10;;;1.87;;
19257;SDS011;9763;48.780;9.212;2023-06-10T11:42:48;2.30;;;2.10;;
19257;SDS011;9763;48.780;9.212;2023-06-10T11:46:12;1.93;;;1.73;;
19257;SDS011;9763;48.780;9.212;2023-06-10T11:49:37;2.53;;;1.97;;
19257;SDS011;9763;48.780;9.212;2023-06-10T11:53:03;1.97;;;1.73;;
19257;SDS011;9763;48.780;9.212;2023-06-10T11:56:29;3.00;;;1.97;;
19257;SDS011;9763;48.780;9.212;2023-06-10T11:59:54;3.63;;;1.70;;
19257;SDS011;9763;48.780;9.212;2023-06-10T12:03:18;1.80;;;1.67;;
19257;SDS011;9763;48.780;9.212;2023-06-10T12:06:44;2.30;;;2.10;;
19257;SDS011;9763;48.780;9.212;2023-06-10T12:10:10;1.93;;;1.83;;
19257;SDS011;9763;48.780;9.212;2023-06-10T12:13:46;2.07;;;1.60;;
19257;SDS011;9763;48.780;9.212;2023-06-10T12:17:12;2.90;;;1.90;;
19257;SDS011;9763;48.780;9.212;2023-06-10T12:20:36;2.73;;;1.80;;
19257;SDS011;9763;48.780;9.212;2023-06-10T12:24:00;2.20;;;1.63;;
19257;SDS011;9763;48.780;9.212;2023-06-10T12:27:29;2.17;;;1.97;;
19257;SDS011;9763;48.780;9.212;2023-06-10T12:31:06;2.00;;;1.77;;
19257;SDS011;9763;48.780;9.212;2023-06-10T12:34:31;2.30;;;1.90;;
19257;SDS011;9763;48.780;9.212;2023-06-10T12:37:58;2.17;;;1.97;;
19257;SDS011;9763;48.780;9.212;2023-06-10T12:41:24;5.67;;;2.20;;
19257;SDS011;9763;48.780;9.212;2023-06-10T12:44:52;3.67;;;2.30;;
19257;SDS011;9763;48.780;9.212;2023-06-10T12:48:20;2.80;;;1.60;;
19257;SDS011;9763;48.780;9.212;2023-06-10T12:51:48;2.10;;;1.90;;
19257;SDS011;9763;48.780;9.212;2023-06-10T12:55:12;5.53;;;1.90;;
19257;SDS011;9763;48.780;9.212;2023-06-10T12:58:36;1.67;;;1.57;;
19257;SDS011;9763;48.780;9.212;2023-06-10T13:02:00;1.80;;;1.70;;
19257;SDS011;9763;48.780;9.212;2023-06-10T13:05:26;1.70;;;1.50;;
19257;SDS011;9763;48.780;9.212;2023-06-10T13:08:51;1.83;;;1.50;;
19257;SDS011;9763;48.780;9.212;2023-06-10T13:12:15;2.57;;;1.90;;
19257;SDS011;9763;48.780;9.212;2023-06-10T13:15:54;2.53;;;1.60;;
19257;SDS011;9763;48.780;9.212;2023-06-10T13:19:18;1.67;;;1.57;;
19257;SDS011;9763;48.780;9.212;2023-06-10T13:22:44;1.87;;;1.60;;
19257;SDS011;9763;48.780;9.212;2023-06-10T13:26:09;2.40;;;2.03;;
19257;SDS011;9763;48.780;9.212;2023-06-10T13:29:33;1.83;;;1.63;;
19257;SDS011;9763;48.780;9.212;2023-06-10T13:32:57;1.60;;;1.47;;
19257;SDS011;9763;48.780;9.212;2023-06-10T13:36:21;1.80;;;1.63;;
19257;SDS011;9763;48.780;9.212;2023-06-10T13:39:46;1.60;;;1.47;;
19257;SDS011;9763;48.780;9.212;2023-06-10T13:43:10;2.17;;;1.67;;
19257;SDS011;9763;48.780;9.212;2023-06-10T13:46:35;2.00;;;1.53;;
19257;SDS011;9763;48.780;9.212;2023-06-10T13:49:59;3.00;;;1.97;;
19257;SDS011;9763;48.780;9.212;2023-06-10T13:53:23;1.70;;;1.60;;
19257;SDS011;9763;48.780;9.212;2023-06-10T13:56:48;2.00;;;1.80;;
19257;SDS011;9763;48.780;9.212;2023-06-10T14:00:12;1.80;;;1.60;;
19257;SDS011;9763;48.780;9.212;2023-06-10T14:03:37;1.70;;;1.60;;
19257;SDS011;9763;48.780;9.212;2023-06-10T14:07:01;2.20;;;1.50;;
19257;SDS011;9763;48.780;9.212;2023-06-10T14:10:24;1.97;;;1.50;;
19257;SDS011;9763;48.780;9.212;2023-06-10T14:13:49;1.93;;;1.73;;
19257;SDS011;9763;48.780;9.212;2023-06-10T14:17:13;1.80;;;1.60;;
19257;SDS011;9763;48.780;9.212;2023-06-10T14:20:37;1.87;;;1.73;;
19257;SDS011;9763;48.780;9.212;2023-06-10T14:24:01;1.70;;;1.60;;
19257;SDS011;9763;48.780;9.212;2023-06-10T14:27:25;3.67;;;2.10;;
19257;SDS011;9763;48.780;9.212;2023-06-10T14:30:50;1.97;;;1.77;;
19257;SDS011;9763;48.780;9.212;2023-06-10T14:34:14;1.70;;;1.60;;
19257;SDS011;9763;48.780;9.212;2023-06-10T14:37:38;1.70;;;1.60;;
19257;SDS011;9763;48.780;9.212;2023-06-10T14:41:01;2.10;;;1.90;;
19257;SDS011;9763;48.780;9.212;2023-06-10T14:44:25;2.30;;;2.10;;
19257;SDS011;9763;48.780;9.212;2023-06-10T14:47:50;2.30;;;1.93;;
19257;SDS011;9763;48.780;9.212;2023-06-10T14:51:14;2.80;;;1.90;;
19257;SDS011;9763;48.780;9.212;2023-06-10T14:54:38;2.00;;;1.80;;
19257;SDS011;9763;48.780;9.212;2023-06-10T14:58:01;2.43;;;2.23;;
19257;SDS011;9763;48.780;9.212;2023-06-10T15:01:25;2.33;;;2.13;;
19257;SDS011;9763;48.780;9.212;2023-06-10T15:04:50;2.20;;;2.00;;
19257;SDS011;9763;48.780;9.212;2023-06-10T15:08:14;2.20;;;2.00;;
19257;SDS011;9763;48.780;9.212;2023-06-10T15:11:37;2.43;;;2.03;;
19257;SDS011;9763;48.780;9.212;2023-06-10T15:15:01;2.20;;;2.00;;
19257;SDS011;9763;48.780;9.212;2023-06-10T15:18:26;2.10;;;1.90;;
19257;SDS011;9763;48.780;9.212;2023-06-10T15:21:51;2.47;;;2.27;;
19257;SDS011;9763;48.780;9.212;2023-06-10T15:25:14;2.07;;;1.87;;
19257;SDS011;9763;48.780;9.212;2023-06-10T15:28:51;2.37;;;1.87;;
19257;SDS011;9763;48.780;9.212;2023-06-10T15:32:15;2.23;;;2.03;;
19257;SDS011;9763;48.780;9.212;2023-06-10T15:35:40;5.20;;;1.93;;
19257;SDS011;9763;48.780;9.212;2023-06-10T15:39:05;2.23;;;2.03;;
19257;SDS011;9763;48.780;9.212;2023-06-10T15:42:29;1.93;;;1.83;;
19257;SDS011;9763;48.780;9.212;2023-06-10T15:45:52;2.10;;;1.90;;
19257;SDS011;9763;48.780;9.212;2023-06-10T15:49:16;5.03;;;2.10;;
19257;SDS011;9763;48.780;9.212;2023-06-10T15:52:40;2.20;;;2.00;;
19257;SDS011;9763;48.780;9.212;2023-06-10T15:56:06;2.37;;;2.17;;
19257;SDS011;9763;48.780;9.212;2023-06-10T15:59:29;2.70;;;2.07;;
19257;SDS011;9763;48.780;9.212;2023-06-10T16:02:53;1.90;;;1.70;;
19257;SDS011;9763;48.780;9.212;2023-06-10T16:06:17;1.97;;;1.80;;
19257;SDS011;9763;48.780;9.212;2023-06-10T16:09:41;1.80;;;1.70;;
19257;SDS011;9763;48.780;9.212;2023-06-10T16:13:06;2.10;;;1.90;;
19257;SDS011;9763;48.780;9.212;2023-06-10T16:16:30;2.37;;;2.17;;
19257;SDS011;9763;48.780;9.212;2023-06-10T16:19:54;2.17;;;1.97;;
19257;SDS011;9763;48.780;9.212;2023-06-10T16:23:18;2.00;;;1.63;;
19257;SDS011;9763;48.780;9.212;2023-06-10T16:26:42;2.43;;;2.23;;
19257;SDS011;9763;48.780;9.212;2023-06-10T16:30:08;2.07;;;1.90;;
19257;SDS011;9763;48.780;9.212;2023-06-10T16:33:34;2.10;;;1.90;;
19257;SDS011;9763;48.780;9.212;2023-06-10T16:36:59;1.70;;;1.60;;
19257;SDS011;9763;48.780;9.212;2023-06-10T16:40:22;1.90;;;1.70;;
19257;SDS011;9763;48.780;9.212;2023-06-10T16:43:47;1.73;;;1.63;;
19257;SDS011;9763;48.780;9.212;2023-06-10T16:47:12;1.90;;;1.70;;
19257;SDS011;9763;48.780;9.212;2023-06-10T16:50:35;2.00;;;1.60;;
19257;SDS011;9763;48.780;9.212;2023-06-10T16:53:59;2.03;;;1.83;;
19257;SDS011;9763;48.780;9.212;2023-06-10T16:57:23;2.17;;;1.97;;
19257;SDS011;9763;48.780;9.212;2023-06-10T17:00:46;2.00;;;1.80;;
19257;SDS011;9763;48.780;9.212;2023-06-10T17:04:12;1.80;;;1.53;;
19257;SDS011;9763;48.780;9.212;2023-06-10T17:07:36;2.00;;;1.80;;
19257;SDS011;9763;48.780;9.212;2023-06-10T17:10:59;2.10;;;1.90;;
19257;SDS011;9763;48.780;9.212;2023-06-10T17:14:23;2.20;;;2.00;;
19257;SDS011;9763;48.780;9.212;2023-06-10T17:17:47;1.83;;;1.63;;
19257;SDS011;9763;48.780;9.212;2023-06-10T17:21:12;1.80;;;1.70;;
19257;SDS011;9763;48.780;9.212;2023-06-10T17:24:37;2.00;;;1.90;;
19257;SDS011;9763;48.780;9.212;2023-06-10T17:28:01;2.00;;;1.90;;
19257;SDS011;9763;48.780;9.212;2023-06-10T17:31:25;2.13;;;1.93;;
19257;SDS011;9763;48.780;9.212;2023-06-10T17:34:48;2.40;;;2.20;;
19257;SDS011;9763;48.780;9.212;2023-06-10T17:38:13;2.20;;;2.00;;
19257;SDS011;9763;48.780;9.212;2023-06-10T17:41:38;2.20;;;2.00;;
19257;SDS011;9763;48.780;9.212;2023-06-10T17:45:02;2.17;;;1.97;;
19257;SDS011;9763;48.780;9.212;2023-06-10T17:48:26;2.37;;;2.17;;
19257;SDS011;9763;48.780;9.212;2023-06-10T17:51:49;2.40;;;2.03;;
19257;SDS011;9763;48.780;9.212;2023-06-10T17:55:14;2.30;;;2.10;;
19257;SDS011;9763;48.780;9.212;2023-06-10T17:58:38;2.30;;;2.10;;
19257;SDS011;9763;48.780;9.212;2023-06-10T18:02:03;2.43;;;2.03;;
19257;SDS011;9763;48.780;9.212;2023-06-10T18:05:28;2.40;;;2.20;;
19257;SDS011;9763;48.780;9.212;2023-06-10T18:08:52;2.33;;;2.03;;
19257;SDS011;9763;48.780;9.212;2023-06-10T18:12:17;2.50;;;2.30;;
19257;SDS011;9763;48.780;9.212;2023-06-10T18:15:40;2.47;;;1.93;;
19257;SDS011;9763;48.780;9.212;2023-06-10T18:19:04;2.67;;;2.20;;
19257;SDS011;9763;48.780;9.212;2023-06-10T18:22:28;2.03;;;1.83;;
19257;SDS011;9763;48.780;9.212;2023-06-10T18:25:51;2.20;;;2.00;;
19257;SDS011;9763;48.780;9.212;2023-06-10T18:29:17;2.27;;;2.07;;
19257;SDS011;9763;48.780;9.212;2023-06-10T18:32:40;2.20;;;2.00;;
19257;SDS011;9763;48.780;9.212;2023-06-10T18:36:04;2.10;;;1.90;;
19257;SDS011;9763;48.780;9.212;2023-06-10T18:39:28;2.30;;;2.10;;
19257;SDS011;9763;48.780;9.212;2023-06-10T18:42:52;2.63;;;1.90;;
19257;SDS011;9763;48.780;9.212;2023-06-10T18:46:17;2.10;;;1.90;;
19257;SDS011;9763;48.780;9.212;2023-06-10T18:49:41;2.13;;;1.93;;
19257;SDS011;9763;48.780;9.212;2023-06-10T18:53:04;3.50;;;1.77;;
19257;SDS011;9763;48.780;9.212;2023-06-10T18:56:28;2.20;;;2.00;;
19257;SDS011;9763;48.780;9.212;2023-06-10T18:59:52;2.30;;;2.10;;
19257;SDS011;9763;48.780;9.212;2023-06-10T19:03:16;2.53;;;2.33;;
19257;SDS011;9763;48.780;9.212;2023-06-10T19:06:40;2.20;;;2.00;;
19257;SDS011;9763;48.780;9.212;2023-06-10T19:10:05;2.13;;;1.93;;
19257;SDS011;9763;48.780;9.212;2023-06-10T19:13:30;2.07;;;1.87;;
19257;SDS011;9763;48.780;9.212;2023-06-10T19:16:54;2.30;;;2.10;;
19257;SDS011;9763;48.780;9.212;2023-06-10T19:20:19;2.30;;;2.10;;
19257;SDS011;9763;48.780;9.212;2023-06-10T19:23:42;2.23;;;2.03;;
19257;SDS011;9763;48.780;9.212;2023-06-10T19:27:07;2.40;;;2.20;;
19257;SDS011;9763;48.780;9.212;2023-06-10T19:30:32;2.30;;;2.10;;
19257;SDS011;9763;48.780;9.212;2023-06-10T19:33:56;2.53;;;2.33;;
19257;SDS011;9763;48.780;9.212;2023-06-10T19:37:21;2.23;;;2.03;;
19257;SDS011;9763;48.780;9.212;2023-06-10T19:40:44;2.77;;;2.57;;
19257;SDS011;9763;48.780;9.212;2023-06-10T19:44:08;2.40;;;2.20;;
19257;SDS011;9763;48.780;9.212;2023-06-10T19:47:32;2.57;;;2.37;;
19257;SDS011;9763;48.780;9.212;2023-06-10T19:50:56;2.13;;;1.93;;
19257;SDS011;9763;48.780;9.212;2023-06-10T19:54:21;2.60;;;2.40;;
19257;SDS011;9763;48.780;9.212;2023-06-10T19:57:44;2.33;;;2.13;;
19257;SDS011;9763;48.780;9.212;2023-06-10T20:01:08;3.87;;;2.40;;
19257;SDS011;9763;48.780;9.212;2023-06-10T20:04:33;2.57;;;2.37;;
19257;SDS011;9763;48.780;9.212;2023-06-10T20:07:57;2.70;;;2.50;;
19257;SDS011;9763;48.780;9.212;2023-06-10T20:11:22;2.33;;;2.13;;
19257;SDS011;9763;48.780;9.212;2023-06-10T20:14:46;2.30;;;2.10;;
19257;SDS011;9763;48.780;9.212;2023-06-10T20:18:10;2.20;;;2.00;;
19257;SDS011;9763;48.780;9.212;2023-06-10T20:21:34;2.50;;;2.30;;
19257;SDS011;9763;48.780;9.212;2023-06-10T20:24:58;2.33;;;2.13;;
19257;SDS011;9763;48.780;9.212;2023-06-10T20:28:23;3.23;;;2.10;;
19257;SDS011;9763;48.780;9.212;2023-06-10T20:31:47;2.43;;;2.20;;
19257;SDS011;9763;48.780;9.212;2023-06-10T20:35:11;2.20;;;2.00;;
19257;SDS011;9763;48.780;9.212;2023-06-10T20:38:35;2.50;;;2.30;;
19257;SDS011;9763;48.780;9.212;2023-06-10T20:41:58;2.10;;;1.90;;
19257;SDS011;9763;48.780;9.212;2023-06-10T20:45:23;2.30;;;2.10;;
19257;SDS011;9763;48.780;9.212;2023-06-10T20:48:47;2.20;;;2.00;;
19257;SDS011;9763;48.780;9.212;2023-06-10T20:52:11;2.70;;;2.50;;
19257;SDS011;9763;48.780;9.212;2023-06-10T20:55:35;2.40;;;2.20;;